sensor_id;sensor_type;location;lat;lon;timestamp;pressure;altitude;pressure_sealevel;temperature;humidity
7834;BME280;3962;42.696;23.354;2023-03-22T00:01:59;94848.06;;;9.65;100.00
7834;BME280;3962;42.696;23.354;2023-03-22T00:04:26;94851.63;;;9.74;100.00
7834;BME280;3962;42.696;23.354;2023-03-22T00:06:54;94845.84;;;9.78;100.00
7834;BME280;3962;42.696;23.354;2023-03-22T00:09:21;94842.06;;;9.81;100.00
7834;BME280;3962;42.696;23.354;2023-03-22T00:11:48;94843.97;;;9.88;100.00
7834;BME280;3962;42.696;23.354;2023-03-22T00:14:15;94851.47;;;9.93;100.00
7834;BME280;3962;42.696;23.354;2023-03-22T00:16:42;94837.06;;;9.95;100.00
7834;BME280;3962;42.696;23.354;2023-03-22T00:19:10;94849.88;;;10.00;100.00
7834;BME280;3962;42.696;23.354;2023-03-22T00:21:37;94849.16;;;9.98;100.00
7834;BME280;3962;42.696;23.354;2023-03-22T00:24:06;94840.00;;;9.92;100.00
7834;BME280;3962;42.696;23.354;2023-03-22T00:26:33;94837.34;;;9.92;100.00
7834;BME280;3962;42.696;23.354;2023-03-22T00:29:00;94840.47;;;9.88;100.00
7834;BME280;3962;42.696;23.354;2023-03-22T00:31:26;94841.56;;;9.60;100.00
7834;BME280;3962;42.696;23.354;2023-03-22T00:33:53;94835.25;;;9.43;100.00
7834;BME280;3962;42.696;23.354;2023-03-22T00:36:20;94835.78;;;9.47;100.00
7834;BME280;3962;42.696;23.354;2023-03-22T00:38:47;94829.88;;;9.53;100.00
7834;BME280;3962;42.696;23.354;2023-03-22T00:41:17;94828.94;;;9.62;100.00
7834;BME280;3962;42.696;23.354;2023-03-22T00:43:45;94826.50;;;9.68;100.00
7834;BME280;3962;42.696;23.354;2023-03-22T00:46:13;94822.78;;;9.79;100.00
7834;BME280;3962;42.696;23.354;2023-03-22T00:48:40;94831.44;;;9.81;100.00
7834;BME280;3962;42.696;23.354;2023-03-22T00:51:08;94824.31;;;9.81;100.00
7834;BME280;3962;42.696;23.354;2023-03-22T00:53:35;94831.28;;;9.82;100.00
7834;BME280;3962;42.696;23.354;2023-03-22T00:56:03;94832.09;;;9.83;100.00
7834;BME280;3962;42.696;23.354;2023-03-22T00:58:31;94825.44;;;9.79;100.00
7834;BME280;3962;42.696;23.354;2023-03-22T01:00:58;94822.13;;;9.77;100.00
7834;BME280;3962;42.696;23.354;2023-03-22T01:03:25;94820.53;;;9.66;100.00
7834;BME280;3962;42.696;23.354;2023-03-22T01:05:52;94821.06;;;9.70;100.00
7834;BME280;3962;42.696;23.354;2023-03-22T01:08:20;94822.66;;;9.63;100.00
7834;BME280;3962;42.696;23.354;2023-03-22T01:10:48;94817.72;;;9.50;100.00
7834;BME280;3962;42.696;23.354;2023-03-22T01:13:15;94812.25;;;9.52;100.00
7834;BME280;3962;42.696;23.354;2023-03-22T01:15:43;94811.56;;;9.50;100.00
7834;BME280;3962;42.696;23.354;2023-03-22T01:18:12;94807.84;;;9.43;100.00
7834;BME280;3962;42.696;23.354;2023-03-22T01:20:39;94806.03;;;9.43;100.00
7834;BME280;3962;42.696;23.354;2023-03-22T01:23:06;94807.69;;;9.44;100.00
7834;BME280;3962;42.696;23.354;2023-03-22T01:25:32;94799.28;;;9.49;100.00
7834;BME280;3962;42.696;23.354;2023-03-22T01:27:59;94806.84;;;9.44;100.00
7834;BME280;3962;42.696;23.354;2023-03-22T01:30:27;94805.19;;;9.43;100.00
7834;BME280;3962;42.696;23.354;2023-03-22T01:32:55;94794.81;;;9.32;100.00
7834;BME280;3962;42.696;23.354;2023-03-22T01:35:22;94804.34;;;9.25;100.00
7834;BME280;3962;42.696;23.354;2023-03-22T01:37:49;94803.97;;;9.37;100.00
7834;BME280;3962;42.696;23.354;2023-03-22T01:40:16;94792.69;;;9.35;100.00
7834;BME280;3962;42.696;23.354;2023-03-22T01:42:43;94805.50;;;9.40;100.00
7834;BME280;3962;42.696;23.354;2023-03-22T01:45:35;94798.88;;;9.44;100.00
7834;BME280;3962;42.696;23.354;2023-03-22T01:48:11;94801.72;;;9.42;100.00
7834;BME280;3962;42.696;23.354;2023-03-22T01:50:41;94797.06;;;9.27;100.00
7834;BME280;3962;42.696;23.354;2023-03-22T01:53:11;94796.53;;;9.23;100.00
7834;BME280;3962;42.696;23.354;2023-03-22T01:55:40;94793.97;;;9.14;100.00
7834;BME280;3962;42.696;23.354;2023-03-22T01:58:07;94795.03;;;9.21;100.00
7834;BME280;3962;42.696;23.354;2023-03-22T02:00:34;94794.19;;;9.20;100.00
7834;BME280;3962;42.696;23.354;2023-03-22T02:03:02;94795.78;;;9.13;100.00
7834;BME280;3962;42.696;23.354;2023-03-22T02:05:33;94794.44;;;9.09;100.00
7834;BME280;3962;42.696;23.354;2023-03-22T02:08:01;94793.53;;;9.18;100.00
7834;BME280;3962;42.696;23.354;2023-03-22T02:10:28;94794.41;;;9.27;100.00
7834;BME280;3962;42.696;23.354;2023-03-22T02:15:50;94795.72;;;9.23;100.00
7834;BME280;3962;42.696;23.354;2023-03-22T02:18:37;94791.75;;;9.27;100.00
7834;BME280;3962;42.696;23.354;2023-03-22T02:21:25;94795.53;;;9.24;100.00
7834;BME280;3962;42.696;23.354;2023-03-22T02:24:17;94799.19;;;9.23;100.00
7834;BME280;3962;42.696;23.354;2023-03-22T02:27:14;94798.13;;;9.16;100.00
7834;BME280;3962;42.696;23.354;2023-03-22T02:29:45;94800.50;;;9.19;100.00
7834;BME280;3962;42.696;23.354;2023-03-22T02:32:47;94801.38;;;9.28;100.00
7834;BME280;3962;42.696;23.354;2023-03-22T02:35:38;94807.53;;;9.28;100.00
7834;BME280;3962;42.696;23.354;2023-03-22T02:41:07;94813.09;;;9.17;100.00
7834;BME280;3962;42.696;23.354;2023-03-22T02:43:41;94805.66;;;9.21;100.00
7834;BME280;3962;42.696;23.354;2023-03-22T02:46:16;94812.31;;;9.25;100.00
7834;BME280;3962;42.696;23.354;2023-03-22T02:48:51;94817.84;;;9.14;100.00
7834;BME280;3962;42.696;23.354;2023-03-22T02:51:21;94821.94;;;9.26;100.00
7834;BME280;3962;42.696;23.354;2023-03-22T02:53:54;94822.56;;;9.37;100.00
7834;BME280;3962;42.696;23.354;2023-03-22T02:56:24;94819.88;;;9.20;100.00
7834;BME280;3962;42.696;23.354;2023-03-22T02:58:57;94822.53;;;9.20;100.00
7834;BME280;3962;42.696;23.354;2023-03-22T03:01:28;94813.91;;;9.18;100.00
7834;BME280;3962;42.696;23.354;2023-03-22T03:03:58;94824.75;;;9.24;100.00
7834;BME280;3962;42.696;23.354;2023-03-22T03:06:28;94815.56;;;9.19;100.00
7834;BME280;3962;42.696;23.354;2023-03-22T03:08:58;94820.28;;;9.25;100.00
7834;BME280;3962;42.696;23.354;2023-03-22T03:11:31;94815.75;;;9.17;100.00
7834;BME280;3962;42.696;23.354;2023-03-22T03:13:58;94818.75;;;9.22;100.00
7834;BME280;3962;42.696;23.354;2023-03-22T03:16:28;94820.13;;;9.09;100.00
7834;BME280;3962;42.696;23.354;2023-03-22T03:19:02;94822.09;;;9.07;100.00
7834;BME280;3962;42.696;23.354;2023-03-22T03:21:37;94825.19;;;9.20;100.00
7834;BME280;3962;42.696;23.354;2023-03-22T03:24:17;94825.44;;;9.26;100.00
7834;BME280;3962;42.696;23.354;2023-03-22T03:26:53;94824.16;;;9.30;100.00
7834;BME280;3962;42.696;23.354;2023-03-22T03:29:28;94819.28;;;9.26;100.00
7834;BME280;3962;42.696;23.354;2023-03-22T03:32:03;94824.59;;;9.26;100.00
7834;BME280;3962;42.696;23.354;2023-03-22T03:34:35;94825.06;;;9.21;100.00
7834;BME280;3962;42.696;23.354;2023-03-22T03:37:06;94829.81;;;9.18;100.00
7834;BME280;3962;42.696;23.354;2023-03-22T03:39:38;94833.03;;;9.21;100.00
7834;BME280;3962;42.696;23.354;2023-03-22T03:42:11;94827.25;;;9.26;100.00
7834;BME280;3962;42.696;23.354;2023-03-22T03:44:39;94826.34;;;9.35;100.00
7834;BME280;3962;42.696;23.354;2023-03-22T03:47:07;94835.84;;;9.37;100.00
7834;BME280;3962;42.696;23.354;2023-03-22T03:49:35;94833.41;;;9.44;100.00
7834;BME280;3962;42.696;23.354;2023-03-22T03:52:03;94829.31;;;9.32;100.00
7834;BME280;3962;42.696;23.354;2023-03-22T03:54:30;94838.09;;;9.15;100.00
7834;BME280;3962;42.696;23.354;2023-03-22T03:56:57;94835.28;;;9.16;100.00
7834;BME280;3962;42.696;23.354;2023-03-22T03:59:27;94838.31;;;9.21;100.00
7834;BME280;3962;42.696;23.354;2023-03-22T04:01:54;94840.16;;;9.21;100.00
7834;BME280;3962;42.696;23.354;2023-03-22T04:04:23;94834.84;;;9.21;100.00
7834;BME280;3962;42.696;23.354;2023-03-22T04:06:52;94843.09;;;9.18;100.00
7834;BME280;3962;42.696;23.354;2023-03-22T04:09:21;94838.25;;;9.13;100.00
7834;BME280;3962;42.696;23.354;2023-03-22T04:11:48;94841.03;;;9.12;100.00
7834;BME280;3962;42.696;23.354;2023-03-22T04:14:15;94840.75;;;9.15;100.00
7834;BME280;3962;42.696;23.354;2023-03-22T04:16:43;94845.97;;;9.24;100.00
7834;BME280;3962;42.696;23.354;2023-03-22T04:19:11;94839.22;;;9.12;100.00
7834;BME280;3962;42.696;23.354;2023-03-22T04:21:37;94846.41;;;9.02;100.00
7834;BME280;3962;42.696;23.354;2023-03-22T04:24:05;94841.03;;;8.94;100.00
7834;BME280;3962;42.696;23.354;2023-03-22T04:26:32;94856.59;;;9.07;100.00
7834;BME280;3962;42.696;23.354;2023-03-22T04:28:59;94851.09;;;9.08;100.00
7834;BME280;3962;42.696;23.354;2023-03-22T04:31:27;94850.78;;;8.94;100.00
7834;BME280;3962;42.696;23.354;2023-03-22T04:33:56;94845.44;;;9.03;100.00
7834;BME280;3962;42.696;23.354;2023-03-22T04:36:25;94849.34;;;8.99;100.00
7834;BME280;3962;42.696;23.354;2023-03-22T04:38:56;94850.06;;;9.01;100.00
7834;BME280;3962;42.696;23.354;2023-03-22T04:41:23;94857.38;;;8.90;100.00
7834;BME280;3962;42.696;23.354;2023-03-22T04:43:50;94848.97;;;8.94;100.00
7834;BME280;3962;42.696;23.354;2023-03-22T04:46:16;94848.78;;;8.78;100.00
7834;BME280;3962;42.696;23.354;2023-03-22T04:48:45;94854.28;;;8.94;100.00
7834;BME280;3962;42.696;23.354;2023-03-22T04:51:13;94858.47;;;8.97;100.00
7834;BME280;3962;42.696;23.354;2023-03-22T04:53:40;94866.03;;;8.92;100.00
7834;BME280;3962;42.696;23.354;2023-03-22T04:56:09;94874.09;;;9.00;100.00
7834;BME280;3962;42.696;23.354;2023-03-22T04:58:38;94875.44;;;9.04;100.00
7834;BME280;3962;42.696;23.354;2023-03-22T05:01:05;94874.84;;;9.10;100.00
7834;BME280;3962;42.696;23.354;2023-03-22T05:03:32;94883.13;;;9.07;100.00
7834;BME280;3962;42.696;23.354;2023-03-22T05:06:00;94875.00;;;9.08;100.00
7834;BME280;3962;42.696;23.354;2023-03-22T05:08:30;94873.09;;;9.01;100.00
7834;BME280;3962;42.696;23.354;2023-03-22T05:10:58;94881.47;;;9.06;100.00
7834;BME280;3962;42.696;23.354;2023-03-22T05:13:26;94882.53;;;9.13;100.00
7834;BME280;3962;42.696;23.354;2023-03-22T05:15:53;94881.91;;;9.19;100.00
7834;BME280;3962;42.696;23.354;2023-03-22T05:18:21;94886.00;;;9.13;100.00
7834;BME280;3962;42.696;23.354;2023-03-22T05:20:51;94889.78;;;9.11;100.00
7834;BME280;3962;42.696;23.354;2023-03-22T05:23:18;94890.88;;;9.18;100.00
7834;BME280;3962;42.696;23.354;2023-03-22T05:25:47;94894.31;;;9.28;100.00
7834;BME280;3962;42.696;23.354;2023-03-22T05:28:15;94897.41;;;9.23;100.00
7834;BME280;3962;42.696;23.354;2023-03-22T05:30:44;94900.38;;;9.20;100.00
7834;BME280;3962;42.696;23.354;2023-03-22T05:33:11;94900.28;;;9.12;100.00
7834;BME280;3962;42.696;23.354;2023-03-22T05:35:40;94901.22;;;9.21;100.00
7834;BME280;3962;42.696;23.354;2023-03-22T05:38:07;94905.69;;;9.20;100.00
7834;BME280;3962;42.696;23.354;2023-03-22T05:40:34;94905.28;;;9.15;100.00
7834;BME280;3962;42.696;23.354;2023-03-22T05:43:02;94898.13;;;9.25;100.00
7834;BME280;3962;42.696;23.354;2023-03-22T05:45:29;94899.97;;;9.42;100.00
7834;BME280;3962;42.696;23.354;2023-03-22T05:47:56;94900.09;;;9.41;100.00
7834;BME280;3962;42.696;23.354;2023-03-22T05:50:23;94896.72;;;9.48;100.00
7834;BME280;3962;42.696;23.354;2023-03-22T05:52:50;94910.50;;;9.52;99.73
7834;BME280;3962;42.696;23.354;2023-03-22T05:55:18;94911.03;;;9.55;99.23
7834;BME280;3962;42.696;23.354;2023-03-22T05:57:45;94917.41;;;9.62;98.88
7834;BME280;3962;42.696;23.354;2023-03-22T06:00:18;94922.09;;;9.51;98.24
7834;BME280;3962;42.696;23.354;2023-03-22T06:02:47;94922.72;;;9.45;98.15
7834;BME280;3962;42.696;23.354;2023-03-22T06:05:15;94918.38;;;9.44;98.89
7834;BME280;3962;42.696;23.354;2023-03-22T06:07:43;94920.88;;;9.45;98.23
7834;BME280;3962;42.696;23.354;2023-03-22T06:10:11;94921.28;;;9.50;98.34
7834;BME280;3962;42.696;23.354;2023-03-22T06:12:39;94922.31;;;9.40;97.94
7834;BME280;3962;42.696;23.354;2023-03-22T06:15:07;94926.06;;;9.47;97.78
7834;BME280;3962;42.696;23.354;2023-03-22T06:17:36;94921.25;;;9.60;97.90
7834;BME280;3962;42.696;23.354;2023-03-22T06:20:03;94923.56;;;9.63;97.05
7834;BME280;3962;42.696;23.354;2023-03-22T06:22:35;94921.59;;;9.65;96.49
7834;BME280;3962;42.696;23.354;2023-03-22T06:25:02;94924.84;;;9.59;96.07
7834;BME280;3962;42.696;23.354;2023-03-22T06:27:29;94932.69;;;9.78;96.20
7834;BME280;3962;42.696;23.354;2023-03-22T06:29:55;94930.59;;;9.81;96.33
7834;BME280;3962;42.696;23.354;2023-03-22T06:32:22;94933.22;;;9.99;96.10
7834;BME280;3962;42.696;23.354;2023-03-22T06:34:52;94939.81;;;10.04;95.67
7834;BME280;3962;42.696;23.354;2023-03-22T06:37:19;94944.66;;;10.09;95.50
7834;BME280;3962;42.696;23.354;2023-03-22T06:39:46;94942.50;;;9.95;95.09
7834;BME280;3962;42.696;23.354;2023-03-22T06:42:13;94943.78;;;9.91;95.38
7834;BME280;3962;42.696;23.354;2023-03-22T06:44:40;94943.63;;;9.92;95.46
7834;BME280;3962;42.696;23.354;2023-03-22T06:47:09;94945.53;;;10.00;95.57
7834;BME280;3962;42.696;23.354;2023-03-22T06:49:36;94942.19;;;9.98;94.32
7834;BME280;3962;42.696;23.354;2023-03-22T06:52:04;94950.19;;;10.15;94.60
7834;BME280;3962;42.696;23.354;2023-03-22T06:54:32;94953.31;;;10.28;93.59
7834;BME280;3962;42.696;23.354;2023-03-22T06:56:58;94944.13;;;10.23;93.61
7834;BME280;3962;42.696;23.354;2023-03-22T06:59:25;94948.53;;;10.32;93.68
7834;BME280;3962;42.696;23.354;2023-03-22T07:01:52;94958.63;;;10.28;93.79
7834;BME280;3962;42.696;23.354;2023-03-22T07:04:19;94958.91;;;10.43;93.36
7834;BME280;3962;42.696;23.354;2023-03-22T07:06:46;94960.34;;;10.55;93.07
7834;BME280;3962;42.696;23.354;2023-03-22T07:09:14;94968.31;;;10.55;92.51
7834;BME280;3962;42.696;23.354;2023-03-22T07:11:41;94967.88;;;10.59;91.94
7834;BME280;3962;42.696;23.354;2023-03-22T07:14:08;94967.72;;;10.43;91.71
7834;BME280;3962;42.696;23.354;2023-03-22T07:16:35;94970.00;;;10.38;91.43
7834;BME280;3962;42.696;23.354;2023-03-22T07:19:02;94974.00;;;10.42;91.77
7834;BME280;3962;42.696;23.354;2023-03-22T07:21:28;94978.19;;;10.45;91.36
7834;BME280;3962;42.696;23.354;2023-03-22T07:23:55;94982.38;;;10.47;91.54
7834;BME280;3962;42.696;23.354;2023-03-22T07:26:24;94976.38;;;10.63;92.12
7834;BME280;3962;42.696;23.354;2023-03-22T07:28:51;94981.22;;;10.67;90.33
7834;BME280;3962;42.696;23.354;2023-03-22T07:31:18;94975.59;;;10.53;89.98
7834;BME280;3962;42.696;23.354;2023-03-22T07:33:44;94990.28;;;10.57;90.40
7834;BME280;3962;42.696;23.354;2023-03-22T07:36:13;94992.28;;;10.55;90.46
7834;BME280;3962;42.696;23.354;2023-03-22T07:38:40;94987.69;;;10.47;90.82
7834;BME280;3962;42.696;23.354;2023-03-22T07:41:07;94996.91;;;10.35;92.00
7834;BME280;3962;42.696;23.354;2023-03-22T07:43:35;94994.25;;;10.35;92.27
7834;BME280;3962;42.696;23.354;2023-03-22T07:46:02;94986.03;;;10.29;91.97
7834;BME280;3962;42.696;23.354;2023-03-22T07:48:29;94998.81;;;10.43;92.06
7834;BME280;3962;42.696;23.354;2023-03-22T07:50:56;94997.13;;;10.42;91.53
7834;BME280;3962;42.696;23.354;2023-03-22T07:53:24;94993.56;;;10.51;91.50
7834;BME280;3962;42.696;23.354;2023-03-22T07:55:51;95001.28;;;10.62;91.75
7834;BME280;3962;42.696;23.354;2023-03-22T07:58:17;95004.19;;;10.51;90.49
7834;BME280;3962;42.696;23.354;2023-03-22T08:00:46;95000.72;;;10.33;91.00
7834;BME280;3962;42.696;23.354;2023-03-22T08:03:14;94999.25;;;10.21;90.53
7834;BME280;3962;42.696;23.354;2023-03-22T08:05:41;95002.09;;;10.19;90.63
7834;BME280;3962;42.696;23.354;2023-03-22T08:08:08;95004.66;;;10.29;90.71
7834;BME280;3962;42.696;23.354;2023-03-22T08:10:37;95002.06;;;10.37;90.54
7834;BME280;3962;42.696;23.354;2023-03-22T08:13:04;95009.06;;;10.38;90.96
7834;BME280;3962;42.696;23.354;2023-03-22T08:15:31;95001.31;;;10.44;91.16
7834;BME280;3962;42.696;23.354;2023-03-22T08:17:59;95005.19;;;10.50;90.96
7834;BME280;3962;42.696;23.354;2023-03-22T08:20:26;95003.38;;;10.33;90.88
7834;BME280;3962;42.696;23.354;2023-03-22T08:22:53;94999.78;;;10.42;91.21
7834;BME280;3962;42.696;23.354;2023-03-22T08:25:20;95008.91;;;10.57;91.44
7834;BME280;3962;42.696;23.354;2023-03-22T08:27:47;95011.69;;;10.73;91.54
7834;BME280;3962;42.696;23.354;2023-03-22T08:30:14;95017.56;;;10.59;91.23
7834;BME280;3962;42.696;23.354;2023-03-22T08:32:41;95010.44;;;10.59;90.81
7834;BME280;3962;42.696;23.354;2023-03-22T08:35:10;95013.91;;;10.60;90.67
7834;BME280;3962;42.696;23.354;2023-03-22T08:37:37;95020.53;;;10.56;90.75
7834;BME280;3962;42.696;23.354;2023-03-22T08:40:07;95022.19;;;10.57;90.25
7834;BME280;3962;42.696;23.354;2023-03-22T08:42:34;95010.97;;;10.63;89.96
7834;BME280;3962;42.696;23.354;2023-03-22T08:45:01;95020.50;;;10.73;90.75
7834;BME280;3962;42.696;23.354;2023-03-22T08:47:28;95018.94;;;10.88;90.65
7834;BME280;3962;42.696;23.354;2023-03-22T08:49:56;95017.75;;;10.82;90.33
7834;BME280;3962;42.696;23.354;2023-03-22T08:52:24;95023.84;;;10.75;91.10
7834;BME280;3962;42.696;23.354;2023-03-22T08:54:51;95027.00;;;10.53;91.60
7834;BME280;3962;42.696;23.354;2023-03-22T08:57:18;95022.13;;;10.49;91.94
7834;BME280;3962;42.696;23.354;2023-03-22T08:59:47;95029.72;;;10.44;92.31
7834;BME280;3962;42.696;23.354;2023-03-22T09:02:13;95021.44;;;10.29;93.53
7834;BME280;3962;42.696;23.354;2023-03-22T09:04:40;95020.38;;;10.22;94.35
7834;BME280;3962;42.696;23.354;2023-03-22T09:07:07;95027.44;;;10.31;94.44
7834;BME280;3962;42.696;23.354;2023-03-22T09:09:36;95027.59;;;10.47;93.97
7834;BME280;3962;42.696;23.354;2023-03-22T09:12:03;95034.91;;;10.45;94.34
7834;BME280;3962;42.696;23.354;2023-03-22T09:14:30;95032.78;;;10.49;93.69
7834;BME280;3962;42.696;23.354;2023-03-22T09:16:57;95030.13;;;10.49;93.82
7834;BME280;3962;42.696;23.354;2023-03-22T09:19:23;95032.44;;;10.34;94.35
7834;BME280;3962;42.696;23.354;2023-03-22T09:21:51;95030.25;;;10.30;94.86
7834;BME280;3962;42.696;23.354;2023-03-22T09:24:18;95037.88;;;10.25;95.00
7834;BME280;3962;42.696;23.354;2023-03-22T09:26:46;95030.44;;;10.28;94.71
7834;BME280;3962;42.696;23.354;2023-03-22T09:29:13;95032.84;;;10.22;94.58
7834;BME280;3962;42.696;23.354;2023-03-22T09:31:40;95034.81;;;10.37;94.67
7834;BME280;3962;42.696;23.354;2023-03-22T09:34:07;95028.59;;;10.46;93.86
7834;BME280;3962;42.696;23.354;2023-03-22T09:36:34;95033.53;;;10.59;93.96
7834;BME280;3962;42.696;23.354;2023-03-22T09:39:01;95037.03;;;10.59;92.87
7834;BME280;3962;42.696;23.354;2023-03-22T09:41:35;95035.44;;;10.66;92.94
7834;BME280;3962;42.696;23.354;2023-03-22T09:44:07;95037.91;;;10.68;92.47
7834;BME280;3962;42.696;23.354;2023-03-22T09:46:39;95032.38;;;10.61;91.94
7834;BME280;3962;42.696;23.354;2023-03-22T09:49:14;95038.44;;;10.71;91.91
7834;BME280;3962;42.696;23.354;2023-03-22T09:51:44;95036.56;;;10.64;92.61
7834;BME280;3962;42.696;23.354;2023-03-22T09:54:14;95042.16;;;10.78;91.87
7834;BME280;3962;42.696;23.354;2023-03-22T09:56:44;95039.03;;;10.82;92.24
7834;BME280;3962;42.696;23.354;2023-03-22T09:59:21;95034.22;;;11.03;91.98
7834;BME280;3962;42.696;23.354;2023-03-22T10:01:51;95037.41;;;11.07;90.87
7834;BME280;3962;42.696;23.354;2023-03-22T10:04:42;95038.69;;;11.28;90.07
7834;BME280;3962;42.696;23.354;2023-03-22T10:07:20;95038.09;;;11.34;89.57
7834;BME280;3962;42.696;23.354;2023-03-22T10:10:05;95042.75;;;11.40;89.52
7834;BME280;3962;42.696;23.354;2023-03-22T10:12:36;95055.59;;;11.37;89.15
7834;BME280;3962;42.696;23.354;2023-03-22T10:15:13;95047.72;;;11.10;89.73
7834;BME280;3962;42.696;23.354;2023-03-22T10:17:43;95052.38;;;11.08;90.62
7834;BME280;3962;42.696;23.354;2023-03-22T10:20:22;95051.72;;;11.06;90.48
7834;BME280;3962;42.696;23.354;2023-03-22T10:22:54;95063.31;;;11.05;90.13
7834;BME280;3962;42.696;23.354;2023-03-22T10:25:32;95055.03;;;11.08;90.21
7834;BME280;3962;42.696;23.354;2023-03-22T10:27:58;95060.28;;;11.17;89.79
7834;BME280;3962;42.696;23.354;2023-03-22T10:30:29;95055.03;;;11.08;88.98
7834;BME280;3962;42.696;23.354;2023-03-22T10:33:01;95054.91;;;11.09;89.15
7834;BME280;3962;42.696;23.354;2023-03-22T10:35:29;95047.41;;;11.13;89.38
7834;BME280;3962;42.696;23.354;2023-03-22T10:37:59;95050.81;;;10.80;89.31
7834;BME280;3962;42.696;23.354;2023-03-22T10:40:30;95042.72;;;10.64;90.40
7834;BME280;3962;42.696;23.354;2023-03-22T10:43:01;95050.53;;;10.66;92.48
7834;BME280;3962;42.696;23.354;2023-03-22T10:45:32;95044.44;;;10.73;91.98
7834;BME280;3962;42.696;23.354;2023-03-22T10:48:03;95045.97;;;10.76;90.78
7834;BME280;3962;42.696;23.354;2023-03-22T10:50:33;95049.38;;;10.85;90.07
7834;BME280;3962;42.696;23.354;2023-03-22T10:53:04;95049.34;;;11.03;89.43
7834;BME280;3962;42.696;23.354;2023-03-22T10:55:31;95046.34;;;10.81;86.57
7834;BME280;3962;42.696;23.354;2023-03-22T10:58:10;95051.78;;;10.96;85.81
7834;BME280;3962;42.696;23.354;2023-03-22T11:00:42;95045.88;;;11.02;85.93
7834;BME280;3962;42.696;23.354;2023-03-22T11:03:25;95041.50;;;11.27;85.08
7834;BME280;3962;42.696;23.354;2023-03-22T11:06:00;95036.66;;;11.22;83.91
7834;BME280;3962;42.696;23.354;2023-03-22T11:08:28;95035.66;;;11.23;83.56
7834;BME280;3962;42.696;23.354;2023-03-22T11:10:54;95034.19;;;11.21;83.65
7834;BME280;3962;42.696;23.354;2023-03-22T11:13:24;95030.28;;;11.15;83.74
7834;BME280;3962;42.696;23.354;2023-03-22T11:15:56;95032.31;;;11.21;82.94
7834;BME280;3962;42.696;23.354;2023-03-22T11:18:28;95034.00;;;11.22;81.08
7834;BME280;3962;42.696;23.354;2023-03-22T11:20:58;95044.81;;;11.21;80.92
7834;BME280;3962;42.696;23.354;2023-03-22T11:23:26;95030.47;;;11.14;81.01
7834;BME280;3962;42.696;23.354;2023-03-22T11:25:59;95033.00;;;11.23;80.76
7834;BME280;3962;42.696;23.354;2023-03-22T11:28:34;95027.91;;;11.30;81.05
7834;BME280;3962;42.696;23.354;2023-03-22T11:31:06;95037.91;;;11.36;82.21
7834;BME280;3962;42.696;23.354;2023-03-22T11:33:34;95034.22;;;11.29;82.29
7834;BME280;3962;42.696;23.354;2023-03-22T11:36:04;95031.22;;;11.32;82.28
7834;BME280;3962;42.696;23.354;2023-03-22T11:38:40;95027.53;;;11.25;83.20
7834;BME280;3962;42.696;23.354;2023-03-22T11:41:10;95022.72;;;11.28;83.13
7834;BME280;3962;42.696;23.354;2023-03-22T11:43:41;95030.00;;;11.18;83.56
7834;BME280;3962;42.696;23.354;2023-03-22T11:46:10;95030.94;;;11.09;83.50
7834;BME280;3962;42.696;23.354;2023-03-22T11:48:39;95031.69;;;11.02;84.73
7834;BME280;3962;42.696;23.354;2023-03-22T11:51:09;95025.69;;;11.00;85.15
7834;BME280;3962;42.696;23.354;2023-03-22T11:53:38;95027.28;;;11.10;84.98
7834;BME280;3962;42.696;23.354;2023-03-22T11:56:08;95026.34;;;11.19;85.19
7834;BME280;3962;42.696;23.354;2023-03-22T11:58:54;95023.72;;;11.27;85.15
7834;BME280;3962;42.696;23.354;2023-03-22T12:01:34;95018.13;;;11.13;84.86
7834;BME280;3962;42.696;23.354;2023-03-22T12:04:04;95024.81;;;11.17;85.58
7834;BME280;3962;42.696;23.354;2023-03-22T12:06:37;95028.47;;;11.16;85.40
7834;BME280;3962;42.696;23.354;2023-03-22T12:09:11;95032.16;;;10.97;84.65
7834;BME280;3962;42.696;23.354;2023-03-22T12:11:45;95031.69;;;11.02;84.99
7834;BME280;3962;42.696;23.354;2023-03-22T12:14:15;95030.19;;;10.99;85.29
7834;BME280;3962;42.696;23.354;2023-03-22T12:16:49;95024.63;;;11.10;83.49
7834;BME280;3962;42.696;23.354;2023-03-22T12:19:22;95018.41;;;11.27;84.00
7834;BME280;3962;42.696;23.354;2023-03-22T12:21:56;95020.38;;;11.25;84.09
7834;BME280;3962;42.696;23.354;2023-03-22T12:24:26;95016.34;;;11.21;86.29
7834;BME280;3962;42.696;23.354;2023-03-22T12:26:56;95017.72;;;11.25;86.13
7834;BME280;3962;42.696;23.354;2023-03-22T12:29:25;95014.59;;;11.30;87.79
7834;BME280;3962;42.696;23.354;2023-03-22T12:31:59;95019.53;;;11.50;87.79
7834;BME280;3962;42.696;23.354;2023-03-22T12:34:35;95013.84;;;11.79;87.63
7834;BME280;3962;42.696;23.354;2023-03-22T12:37:06;95018.59;;;12.01;85.93
7834;BME280;3962;42.696;23.354;2023-03-22T12:39:38;95020.09;;;12.11;84.32
7834;BME280;3962;42.696;23.354;2023-03-22T12:42:12;95016.78;;;12.17;83.78
7834;BME280;3962;42.696;23.354;2023-03-22T12:44:43;95008.63;;;12.19;82.89
7834;BME280;3962;42.696;23.354;2023-03-22T12:47:17;95009.13;;;12.14;82.64
7834;BME280;3962;42.696;23.354;2023-03-22T12:49:52;95014.06;;;12.01;82.49
7834;BME280;3962;42.696;23.354;2023-03-22T12:52:23;95005.38;;;11.91;83.25
7834;BME280;3962;42.696;23.354;2023-03-22T12:54:51;95012.91;;;12.04;83.86
7834;BME280;3962;42.696;23.354;2023-03-22T12:57:19;95014.88;;;11.86;81.80
7834;BME280;3962;42.696;23.354;2023-03-22T12:59:48;95013.47;;;11.74;81.02
7834;BME280;3962;42.696;23.354;2023-03-22T13:02:21;95014.84;;;11.78;79.93
7834;BME280;3962;42.696;23.354;2023-03-22T13:04:53;95018.69;;;11.83;80.05
7834;BME280;3962;42.696;23.354;2023-03-22T13:07:36;95016.34;;;11.80;81.02
7834;BME280;3962;42.696;23.354;2023-03-22T13:13:32;95006.66;;;11.79;81.81
7834;BME280;3962;42.696;23.354;2023-03-22T13:16:01;95015.44;;;11.38;82.47
7834;BME280;3962;42.696;23.354;2023-03-22T13:18:37;95010.16;;;11.46;82.79
7834;BME280;3962;42.696;23.354;2023-03-22T13:21:09;95012.81;;;11.46;82.83
7834;BME280;3962;42.696;23.354;2023-03-22T13:23:51;95000.69;;;11.52;82.41
7834;BME280;3962;42.696;23.354;2023-03-22T13:26:19;95009.03;;;11.57;83.19
7834;BME280;3962;42.696;23.354;2023-03-22T13:28:54;95004.97;;;11.70;83.81
7834;BME280;3962;42.696;23.354;2023-03-22T13:31:34;94995.72;;;11.57;85.37
7834;BME280;3962;42.696;23.354;2023-03-22T13:34:03;95000.34;;;11.72;84.93
7834;BME280;3962;42.696;23.354;2023-03-22T13:36:30;94997.47;;;11.74;85.53